createdAt,value
2017-08-29T00:00:12.919Z,66.50
2017-08-29T00:02:44.591Z,66.50
2017-08-29T00:05:15.506Z,66.70
2017-08-29T00:07:45.631Z,66.70
2017-08-29T00:10:15.967Z,66.90
2017-08-29T00:12:48.306Z,67.10
2017-08-29T00:15:19.731Z,67.00
2017-08-29T00:17:50.403Z,67.10
2017-08-29T00:20:20.868Z,67.30
2017-08-29T00:22:52.253Z,67.20
2017-08-29T00:25:23.232Z,67.50
2017-08-29T00:27:54.346Z,67.40
2017-08-29T00:30:25.795Z,67.60
2017-08-29T00:32:55.713Z,67.60
2017-08-29T00:35:27.208Z,67.70
2017-08-29T00:38:00.048Z,68.20
2017-08-29T00:40:30.013Z,68.20
2017-08-29T00:42:59.656Z,68.60
2017-08-29T00:45:31.325Z,68.30
2017-08-29T00:48:03.765Z,68.30
2017-08-29T00:50:33.112Z,68.50
2017-08-29T00:53:03.934Z,68.70
2017-08-29T00:55:33.851Z,68.80
2017-08-29T00:58:05.558Z,68.80
2017-08-29T01:00:36.642Z,68.80
2017-08-29T01:03:06.851Z,68.70
2017-08-29T01:05:36.671Z,68.60
2017-08-29T01:08:07.659Z,68.50
2017-08-29T01:10:40.032Z,68.70
2017-08-29T01:13:12.934Z,69.00
2017-08-29T01:15:43.416Z,69.00
2017-08-29T01:18:15.281Z,69.10
2017-08-29T01:20:47.874Z,69.00
2017-08-29T01:23:20.677Z,69.10
2017-08-29T01:25:51.814Z,69.10
2017-08-29T01:28:23.228Z,69.20
2017-08-29T01:30:55.239Z,69.30
2017-08-29T01:33:26.733Z,69.40
2017-08-29T01:35:58.312Z,69.20
2017-08-29T01:38:29.127Z,69.50
2017-08-29T01:41:01.101Z,69.50
2017-08-29T01:43:31.849Z,69.30
2017-08-29T01:46:04.582Z,69.50
2017-08-29T01:48:37.045Z,69.50
2017-08-29T01:51:08.304Z,69.70
2017-08-29T01:53:38.779Z,69.60
2017-08-29T01:56:10.025Z,69.60
2017-08-29T01:58:41.530Z,69.70
2017-08-29T02:01:13.770Z,69.70
2017-08-29T02:03:43.467Z,69.70
2017-08-29T02:06:14.490Z,69.80
2017-08-29T02:08:47.479Z,69.90
2017-08-29T02:11:19.877Z,70.00
2017-08-29T02:13:49.951Z,70.40
2017-08-29T02:16:19.238Z,70.20
2017-08-29T02:18:49.628Z,70.20
2017-08-29T02:21:20.098Z,70.10
2017-08-29T02:23:51.572Z,70.60
2017-08-29T02:26:22.299Z,70.70
2017-08-29T02:28:53.757Z,70.60
2017-08-29T02:31:24.444Z,70.70
2017-08-29T02:33:55.356Z,70.70
2017-08-29T02:36:26.283Z,71.10
2017-08-29T02:38:55.877Z,70.90
2017-08-29T02:41:25.616Z,71.10
2017-08-29T02:43:57.448Z,71.70
2017-08-29T02:46:27.636Z,71.30
2017-08-29T02:51:39.072Z,71.40
2017-08-29T02:54:16.805Z,71.20
2017-08-29T02:56:51.803Z,71.40
2017-08-29T02:59:25.052Z,71.70
2017-08-29T03:01:57.614Z,71.60
2017-08-29T03:04:30.670Z,71.70
2017-08-29T03:07:02.785Z,71.70
2017-08-29T03:09:35.166Z,71.80
2017-08-29T03:12:06.123Z,71.90
2017-08-29T03:14:35.480Z,71.90
2017-08-29T03:17:05.246Z,71.70
2017-08-29T03:19:38.636Z,71.80
2017-08-29T03:22:09.398Z,72.10
2017-08-29T03:24:39.785Z,72.10
2017-08-29T03:27:11.343Z,71.90
2017-08-29T03:29:41.445Z,71.90
2017-08-29T03:32:12.104Z,71.90
2017-08-29T03:34:42.994Z,72.30
2017-08-29T03:37:14.095Z,72.10
2017-08-29T03:39:44.611Z,72.20
2017-08-29T03:42:15.539Z,72.00
2017-08-29T03:44:45.424Z,72.00
2017-08-29T03:47:16.724Z,72.10
2017-08-29T03:49:46.514Z,72.60
2017-08-29T03:52:16.525Z,72.70
2017-08-29T03:54:47.066Z,72.60
2017-08-29T03:57:16.817Z,72.70
2017-08-29T03:59:46.816Z,72.50
2017-08-29T04:02:16.875Z,72.50
2017-08-29T04:04:46.827Z,72.20
2017-08-29T04:07:16.574Z,72.30
2017-08-29T04:09:46.252Z,72.70
2017-08-29T04:12:16.881Z,72.60
2017-08-29T04:14:47.413Z,72.40
2017-08-29T04:17:17.743Z,72.40
2017-08-29T04:19:47.415Z,72.70
2017-08-29T04:22:16.621Z,72.70
2017-08-29T04:24:46.790Z,72.50
2017-08-29T04:27:16.336Z,72.80
2017-08-29T04:29:46.558Z,72.80
2017-08-29T04:32:16.525Z,72.90
2017-08-29T04:34:48.614Z,73.00
2017-08-29T04:37:18.856Z,72.90
2017-08-29T04:39:49.525Z,72.80
2017-08-29T04:42:20.203Z,72.90
2017-08-29T04:44:50.042Z,73.00
2017-08-29T04:47:20.054Z,72.80
2017-08-29T04:49:50.384Z,72.90
2017-08-29T04:52:20.752Z,73.00
2017-08-29T04:54:51.431Z,73.50
2017-08-29T04:57:20.956Z,73.30
2017-08-29T04:59:50.942Z,73.40
2017-08-29T05:02:20.852Z,73.40
2017-08-29T05:04:51.210Z,73.60
2017-08-29T05:07:20.943Z,73.60
2017-08-29T05:09:50.866Z,73.40
2017-08-29T05:12:21.262Z,73.60
2017-08-29T05:14:52.049Z,73.70
2017-08-29T05:17:23.122Z,73.80
2017-08-29T05:19:54.469Z,74.70
2017-08-29T05:22:24.982Z,74.70
2017-08-29T05:24:55.355Z,75.40
2017-08-29T05:27:25.845Z,74.90
2017-08-29T05:29:55.261Z,74.90
2017-08-29T05:32:24.839Z,75.00
2017-08-29T05:34:55.576Z,75.20
2017-08-29T05:37:25.971Z,75.00
2017-08-29T05:39:54.280Z,75.10
2017-08-29T05:42:22.422Z,75.20
2017-08-29T05:44:50.584Z,75.20
2017-08-29T05:47:18.717Z,75.20
2017-08-29T05:49:47.013Z,75.40
2017-08-29T05:52:15.144Z,75.30
2017-08-29T05:54:43.277Z,76.30
2017-08-29T05:57:11.449Z,76.20
2017-08-29T05:59:39.586Z,76.00
2017-08-29T06:02:07.729Z,75.80
2017-08-29T06:04:36.015Z,75.80
2017-08-29T06:07:04.164Z,76.10
2017-08-29T06:09:32.320Z,77.60
2017-08-29T06:12:00.455Z,76.90
2017-08-29T06:14:32.366Z,77.20
2017-08-29T06:17:01.511Z,77.60
2017-08-29T06:19:32.825Z,77.40
2017-08-29T06:22:04.051Z,77.60
2017-08-29T06:24:34.520Z,77.70
2017-08-29T06:27:04.375Z,77.50
2017-08-29T06:29:35.786Z,77.10
2017-08-29T06:32:06.099Z,77.60
2017-08-29T06:34:35.560Z,77.60
2017-08-29T06:37:05.431Z,76.90
2017-08-29T06:39:35.519Z,76.60
2017-08-29T06:42:05.454Z,77.20
2017-08-29T06:44:34.616Z,76.70
2017-08-29T06:47:04.598Z,76.20
2017-08-29T06:49:33.994Z,76.10
2017-08-29T06:52:05.392Z,76.60
2017-08-29T06:54:36.158Z,76.10
2017-08-29T06:57:06.636Z,75.90
2017-08-29T06:59:38.104Z,75.60
2017-08-29T07:02:08.829Z,75.90
2017-08-29T07:04:38.786Z,75.50
2017-08-29T07:07:08.497Z,75.60
2017-08-29T07:09:40.210Z,74.50
2017-08-29T07:12:09.789Z,74.60
2017-08-29T07:14:39.576Z,73.70
2017-08-29T07:17:09.436Z,74.10
2017-08-29T07:19:39.668Z,74.40
2017-08-29T07:22:10.187Z,74.80
2017-08-29T07:24:40.069Z,74.30
2017-08-29T07:27:09.849Z,74.40
2017-08-29T07:29:40.097Z,73.80
2017-08-29T07:32:08.301Z,73.40
2017-08-29T07:34:36.449Z,73.50
2017-08-29T07:37:04.622Z,73.40
2017-08-29T07:39:32.764Z,72.60
2017-08-29T07:42:00.936Z,72.70
2017-08-29T07:44:29.086Z,72.60
2017-08-29T07:46:57.369Z,72.40
2017-08-29T07:49:25.536Z,72.20
2017-08-29T07:51:53.675Z,72.80
2017-08-29T07:54:21.853Z,71.80
2017-08-29T07:56:49.984Z,71.70
2017-08-29T07:59:18.133Z,72.50
2017-08-29T08:01:46.397Z,71.10
2017-08-29T08:04:14.537Z,71.30
2017-08-29T08:06:42.712Z,70.10
2017-08-29T08:09:10.848Z,71.00
2017-08-29T08:11:39.017Z,70.70
2017-08-29T08:14:07.172Z,71.10
2017-08-29T08:16:35.443Z,69.40
2017-08-29T08:19:03.595Z,69.40
2017-08-29T08:21:31.724Z,70.40
2017-08-29T08:23:59.921Z,70.00
2017-08-29T08:26:28.061Z,70.50
2017-08-29T08:28:56.260Z,69.70
2017-08-29T08:31:24.428Z,69.10
2017-08-29T08:33:52.716Z,68.80
2017-08-29T08:36:20.857Z,68.70
2017-08-29T08:38:49.053Z,67.60
2017-08-29T08:41:17.187Z,69.10
2017-08-29T08:43:45.366Z,68.60
2017-08-29T08:46:13.513Z,68.70
2017-08-29T08:48:41.653Z,67.40
2017-08-29T08:51:09.826Z,68.30
2017-08-29T08:53:38.038Z,67.70
2017-08-29T08:56:06.192Z,67.20
2017-08-29T08:58:34.348Z,66.10
2017-08-29T09:01:02.531Z,67.30
2017-08-29T09:03:30.665Z,66.00
2017-08-29T09:05:58.809Z,65.80
2017-08-29T09:08:26.992Z,64.40
2017-08-29T09:10:55.133Z,63.60
2017-08-29T09:13:23.421Z,63.70
2017-08-29T09:15:51.544Z,63.80
2017-08-29T09:18:19.725Z,63.70
2017-08-29T09:20:47.872Z,61.50
2017-08-29T09:23:16.044Z,62.30
2017-08-29T09:25:44.188Z,62.40
2017-08-29T09:28:20.575Z,61.40
2017-08-29T09:30:51.613Z,61.00
2017-08-29T09:33:22.406Z,60.20
2017-08-29T09:35:52.288Z,59.60
2017-08-29T09:38:21.652Z,60.40
2017-08-29T09:40:53.146Z,59.50
2017-08-29T09:43:24.340Z,58.70
2017-08-29T09:45:56.014Z,58.10
2017-08-29T09:48:27.713Z,58.50
2017-08-29T09:51:00.079Z,58.00
2017-08-29T09:53:29.852Z,57.80
2017-08-29T09:56:01.180Z,57.60
2017-08-29T09:58:31.397Z,57.40
2017-08-29T10:01:02.513Z,56.10
2017-08-29T10:03:33.856Z,57.40
2017-08-29T10:06:05.335Z,56.90
2017-08-29T10:08:38.946Z,55.40
2017-08-29T10:11:10.283Z,54.50
2017-08-29T10:13:42.660Z,56.70
2017-08-29T10:16:15.731Z,55.90
2017-08-29T10:18:47.416Z,52.60
2017-08-29T10:21:18.198Z,54.70
2017-08-29T10:26:54.454Z,55.30
2017-08-29T10:29:25.864Z,55.90
2017-08-29T10:31:57.745Z,55.20
2017-08-29T10:34:28.330Z,55.50
2017-08-29T10:37:00.127Z,57.80
2017-08-29T10:42:06.176Z,54.50
2017-08-29T10:44:37.443Z,55.70
2017-08-29T10:47:09.502Z,56.20
2017-08-29T10:52:16.277Z,54.80
2017-08-29T10:55:00.356Z,52.70
2017-08-29T11:04:06.199Z,51.50
2017-08-29T11:06:36.544Z,52.90
2017-08-29T11:09:08.129Z,51.40
2017-08-29T11:11:37.284Z,51.90
2017-08-29T11:14:07.816Z,51.80
2017-08-29T11:16:38.446Z,51.20
2017-08-29T11:19:08.522Z,50.30
2017-08-29T11:24:17.159Z,49.40
2017-08-29T11:26:47.065Z,48.20
2017-08-29T11:29:18.375Z,49.00
2017-08-29T11:31:50.258Z,48.50
2017-08-29T11:34:21.995Z,47.90
2017-08-29T11:36:54.466Z,47.00
2017-08-29T11:39:28.355Z,46.60
2017-08-29T11:42:02.714Z,45.80
2017-08-29T11:44:33.872Z,46.80
2017-08-29T11:47:04.378Z,45.10
2017-08-29T11:49:36.653Z,46.30
2017-08-29T11:52:08.682Z,45.00
2017-08-29T11:54:40.973Z,44.60
2017-08-29T11:57:13.175Z,45.90
2017-08-29T11:59:44.827Z,44.80
2017-08-29T12:02:17.393Z,44.20
2017-08-29T12:04:48.317Z,45.40
2017-08-29T12:07:19.056Z,45.30
2017-08-29T12:09:50.876Z,43.90
2017-08-29T12:12:24.027Z,42.70
2017-08-29T12:14:54.312Z,42.80
2017-08-29T12:17:24.738Z,41.90
2017-08-29T12:19:57.229Z,42.10
2017-08-29T12:22:27.704Z,41.70
2017-08-29T12:24:59.581Z,42.00
2017-08-29T12:27:29.396Z,41.30
2017-08-29T12:30:01.141Z,41.00
2017-08-29T12:32:31.390Z,40.50
2017-08-29T12:35:01.599Z,40.10
2017-08-29T12:37:32.529Z,41.70
2017-08-29T12:40:03.390Z,40.50
2017-08-29T12:42:34.206Z,39.80
2017-08-29T12:45:04.617Z,39.90
2017-08-29T12:47:35.992Z,38.50
2017-08-29T12:50:06.059Z,39.70
2017-08-29T12:52:36.521Z,39.80
2017-08-29T12:55:07.018Z,37.90
2017-08-29T12:57:37.639Z,40.30
2017-08-29T13:00:07.625Z,39.10
2017-08-29T13:02:37.054Z,37.20
2017-08-29T13:05:07.236Z,37.50
2017-08-29T13:07:37.329Z,37.20
2017-08-29T13:10:08.249Z,39.10
2017-08-29T13:12:38.769Z,37.90
2017-08-29T13:15:08.367Z,37.40
2017-08-29T13:17:39.460Z,38.00
2017-08-29T13:20:10.259Z,36.10
2017-08-29T13:22:41.466Z,35.80
2017-08-29T13:25:12.239Z,36.40
2017-08-29T13:27:44.786Z,33.00
2017-08-29T13:30:15.312Z,33.10
2017-08-29T13:32:46.240Z,35.20
2017-08-29T13:35:17.063Z,34.50
2017-08-29T13:37:47.916Z,35.00
2017-08-29T13:40:19.362Z,35.10
2017-08-29T13:42:49.762Z,37.10
2017-08-29T13:45:19.333Z,37.00
2017-08-29T13:47:50.653Z,36.70
2017-08-29T13:50:20.474Z,35.80
2017-08-29T13:52:52.374Z,37.90
2017-08-29T13:55:22.532Z,35.00
2017-08-29T13:57:52.903Z,35.90
2017-08-29T14:00:23.605Z,36.50
2017-08-29T14:02:53.524Z,35.30
2017-08-29T14:05:23.303Z,35.80
2017-08-29T14:07:56.223Z,37.80
2017-08-29T14:10:27.541Z,36.60
2017-08-29T14:13:07.002Z,37.00
2017-08-29T14:15:37.148Z,36.30
2017-08-29T14:20:59.176Z,36.80
2017-08-29T14:23:29.317Z,35.70
2017-08-29T14:25:59.939Z,35.10
2017-08-29T14:28:30.853Z,35.40
2017-08-29T14:31:02.105Z,35.10
2017-08-29T14:33:31.655Z,34.90
2017-08-29T14:36:02.630Z,35.00
2017-08-29T14:38:32.470Z,36.10
2017-08-29T14:41:04.468Z,35.10
2017-08-29T14:43:35.038Z,37.20
2017-08-29T14:46:06.670Z,36.80
2017-08-29T14:48:39.546Z,36.50
2017-08-29T14:51:10.903Z,36.00
2017-08-29T14:53:40.958Z,35.40
2017-08-29T14:56:11.479Z,36.10
2017-08-29T14:58:42.166Z,34.40
2017-08-29T15:01:12.465Z,35.20
2017-08-29T15:03:43.159Z,36.30
2017-08-29T15:06:13.276Z,35.80
2017-08-29T15:08:44.068Z,35.40
2017-08-29T15:11:15.551Z,34.80
2017-08-29T15:13:46.786Z,34.80
2017-08-29T15:16:19.114Z,36.10
2017-08-29T15:18:51.110Z,35.90
2017-08-29T15:21:21.935Z,35.00
2017-08-29T15:23:51.997Z,36.60
2017-08-29T15:26:22.966Z,36.20
2017-08-29T15:28:56.130Z,36.10
2017-08-29T15:31:28.008Z,36.20
2017-08-29T15:33:59.196Z,36.10
2017-08-29T15:36:29.638Z,35.00
2017-08-29T15:39:01.376Z,33.80
2017-08-29T15:41:33.408Z,34.30
2017-08-29T15:44:05.246Z,34.00
2017-08-29T15:46:37.187Z,36.20
2017-08-29T15:49:07.609Z,38.60
2017-08-29T15:51:38.969Z,38.50
2017-08-29T15:54:08.173Z,38.70
2017-08-29T15:56:39.584Z,37.90
2017-08-29T15:59:10.970Z,36.00
2017-08-29T16:01:41.181Z,38.40
2017-08-29T16:04:11.590Z,37.20
2017-08-29T16:06:41.145Z,37.50
2017-08-29T16:09:12.150Z,37.30
2017-08-29T16:11:43.121Z,37.40
2017-08-29T16:14:16.040Z,37.40
2017-08-29T16:16:47.629Z,38.00
2017-08-29T16:19:17.151Z,38.10
2017-08-29T16:21:47.997Z,38.00
2017-08-29T16:24:18.337Z,37.30
2017-08-29T16:26:51.857Z,38.00
2017-08-29T16:30:42.832Z,39.40
2017-08-29T16:33:13.025Z,37.60
2017-08-29T16:35:43.536Z,39.40
2017-08-29T16:38:15.104Z,40.60
2017-08-29T16:40:47.222Z,39.80
2017-08-29T16:43:17.156Z,39.50
2017-08-29T16:45:49.389Z,38.40
2017-08-29T16:48:21.506Z,38.40
2017-08-29T16:50:56.748Z,40.20
2017-08-29T16:53:28.690Z,40.80
2017-08-29T16:56:00.213Z,40.90
2017-08-29T16:58:29.808Z,41.50
2017-08-29T17:01:02.286Z,41.30
2017-08-29T17:03:31.935Z,42.90
2017-08-29T17:06:01.532Z,42.10
2017-08-29T17:08:33.854Z,42.70
2017-08-29T17:11:05.534Z,43.20
2017-08-29T17:13:36.205Z,42.00
2017-08-29T17:16:07.994Z,41.30
2017-08-29T17:18:37.136Z,41.90
2017-08-29T17:21:11.054Z,40.90
2017-08-29T17:23:39.249Z,40.40
2017-08-29T17:26:08.594Z,40.30
2017-08-29T17:28:39.213Z,40.70
2017-08-29T17:31:11.701Z,41.20
2017-08-29T17:33:41.393Z,41.40
2017-08-29T17:36:11.566Z,41.70
2017-08-29T17:38:41.491Z,41.80
2017-08-29T17:41:12.605Z,42.20
2017-08-29T17:43:42.202Z,42.20
2017-08-29T17:46:11.880Z,42.50
2017-08-29T17:48:43.853Z,42.40
2017-08-29T17:51:12.420Z,42.10
2017-08-29T17:53:40.556Z,42.70
2017-08-29T17:56:08.733Z,42.20
2017-08-29T17:58:36.864Z,42.50
2017-08-29T18:01:04.997Z,42.90
2017-08-29T18:03:33.158Z,42.80
2017-08-29T18:06:01.298Z,43.50
2017-08-29T18:08:29.578Z,43.70
2017-08-29T18:10:59.918Z,44.00
2017-08-29T18:13:28.223Z,44.00
2017-08-29T18:18:37.088Z,44.00
2017-08-29T18:21:12.902Z,44.30
2017-08-29T18:23:42.209Z,44.50
2017-08-29T18:26:12.924Z,44.30
2017-08-29T18:28:41.190Z,44.70
2017-08-29T18:31:09.325Z,45.10
2017-08-29T18:33:37.460Z,45.30
2017-08-29T18:36:05.629Z,45.30
2017-08-29T18:38:37.358Z,45.10
2017-08-29T18:41:22.845Z,45.40
2017-08-29T18:43:57.063Z,45.80
2017-08-29T18:46:30.847Z,46.10
2017-08-29T18:49:01.826Z,46.10
2017-08-29T18:51:32.197Z,46.10
2017-08-29T18:54:02.938Z,46.20
2017-08-29T18:56:35.301Z,46.10
2017-08-29T18:59:06.089Z,46.40
2017-08-29T19:01:38.397Z,46.60
2017-08-29T19:04:09.380Z,46.60
2017-08-29T19:06:40.556Z,46.40
2017-08-29T19:09:13.278Z,46.80
2017-08-29T19:11:45.076Z,46.80
2017-08-29T19:14:18.355Z,47.10
2017-08-29T19:16:49.819Z,47.10
2017-08-29T19:19:21.537Z,46.80
2017-08-29T19:21:54.350Z,47.10
2017-08-29T19:24:24.709Z,47.30
2017-08-29T19:26:57.534Z,47.20
2017-08-29T19:32:08.549Z,47.50
2017-08-29T19:34:39.243Z,47.20
2017-08-29T19:37:10.553Z,47.10
2017-08-29T19:42:17.021Z,47.90
2017-08-29T19:44:47.653Z,47.80
2017-08-29T19:47:18.323Z,48.00
2017-08-29T19:49:48.505Z,48.10
2017-08-29T19:52:19.642Z,48.10
2017-08-29T19:54:51.312Z,48.30
2017-08-29T19:57:22.494Z,48.80
2017-08-29T19:59:53.473Z,49.00
2017-08-29T20:02:24.628Z,49.00
2017-08-29T20:04:55.504Z,49.00
2017-08-29T20:07:26.972Z,49.20
2017-08-29T20:09:58.050Z,49.60
2017-08-29T20:12:29.188Z,49.80
2017-08-29T20:17:43.677Z,49.90
2017-08-29T20:23:03.525Z,49.80
2017-08-29T20:28:20.046Z,50.50
2017-08-29T20:30:57.847Z,51.00
2017-08-29T20:38:57.169Z,52.30
2017-08-29T20:49:29.057Z,52.50
2017-08-29T21:02:43.716Z,53.50
2017-08-29T21:05:17.868Z,53.30
2017-08-29T21:07:51.896Z,53.80
2017-08-29T21:10:27.956Z,53.90
2017-08-29T21:13:02.264Z,53.90
2017-08-29T21:23:38.718Z,53.70
2017-08-29T21:26:14.817Z,53.60
2017-08-29T21:28:48.222Z,53.70
2017-08-29T21:31:20.626Z,53.50
2017-08-29T21:33:53.381Z,54.20
2017-08-29T21:36:26.309Z,54.70
2017-08-29T21:39:02.760Z,54.90
2017-08-29T21:41:33.375Z,54.20
2017-08-29T21:44:04.591Z,54.20
2017-08-29T21:46:36.745Z,54.10
2017-08-29T21:49:08.264Z,54.10
2017-08-29T21:51:39.916Z,53.90
2017-08-29T21:54:11.362Z,54.40
2017-08-29T21:56:42.624Z,54.40
2017-08-29T21:59:18.293Z,54.20
2017-08-29T22:01:52.057Z,54.60
2017-08-29T22:04:26.654Z,54.10
2017-08-29T22:06:58.530Z,54.00
2017-08-29T22:09:31.055Z,53.80
2017-08-29T22:12:03.970Z,53.80
2017-08-29T22:14:36.019Z,54.40
2017-08-29T22:17:12.512Z,54.10
2017-08-29T22:19:45.894Z,54.30
2017-08-29T22:22:17.631Z,54.40
2017-08-29T22:24:52.546Z,54.00
2017-08-29T22:27:24.582Z,54.40
2017-08-29T22:29:56.522Z,54.60
2017-08-29T22:32:28.314Z,54.50
2017-08-29T22:35:01.611Z,54.70
2017-08-29T22:37:35.036Z,54.90
2017-08-29T22:40:07.808Z,55.10
2017-08-29T22:42:41.085Z,55.30
2017-08-29T22:45:14.117Z,55.70
2017-08-29T22:47:51.255Z,55.70
2017-08-29T22:50:24.015Z,55.70
2017-08-29T22:52:56.499Z,55.90
2017-08-29T22:58:06.887Z,56.00
2017-08-29T23:00:42.154Z,56.20
2017-08-29T23:03:14.188Z,56.20
2017-08-29T23:05:48.941Z,56.20
2017-08-29T23:08:25.255Z,56.20
2017-08-29T23:10:59.583Z,56.40
2017-08-29T23:13:33.840Z,56.40
2017-08-29T23:18:49.467Z,56.70
2017-08-29T23:21:24.576Z,56.80
2017-08-29T23:24:02.462Z,56.90
2017-08-29T23:26:41.215Z,56.90
2017-08-29T23:29:13.575Z,57.00
2017-08-29T23:31:46.182Z,57.20
2017-08-29T23:34:18.674Z,57.20
2017-08-29T23:36:51.418Z,57.30
2017-08-29T23:39:23.277Z,57.60
2017-08-29T23:41:54.124Z,57.90
2017-08-29T23:44:26.941Z,57.90
2017-08-29T23:46:58.735Z,57.90
2017-08-29T23:49:32.805Z,58.40
2017-08-29T23:52:04.666Z,58.00
2017-08-29T23:54:35.765Z,58.00
2017-08-29T23:57:08.326Z,58.10
2017-08-29T23:59:40.998Z,58.10
